createdAt,value
2023-10-14T08:58:56.746Z,58.95
2023-10-14T08:59:06.015Z,58.95
2023-10-14T08:59:16.676Z,58.85
2023-10-14T08:59:27.319Z,58.54
2023-10-14T08:59:37.956Z,58.95
2023-10-14T08:59:48.362Z,59.86
2023-10-14T08:59:59.237Z,59.86
2023-10-14T09:00:12.037Z,59.86
2023-10-14T09:00:20.943Z,59.86
2023-10-14T09:00:31.882Z,59.45
2023-10-14T09:00:42.820Z,60.06
2023-10-14T09:00:53.828Z,59.56
2023-10-14T09:01:04.384Z,59.15
2023-10-14T09:01:29.643Z,59.15
2023-10-14T09:01:30.766Z,59.86
2023-10-14T09:01:41.247Z,59.76
2023-10-14T09:01:52.148Z,59.56
2023-10-14T09:02:02.414Z,59.86
2023-10-14T09:02:13.075Z,60.16
2023-10-14T09:02:34.653Z,60.36
2023-10-14T09:02:47.104Z,59.76
2023-10-14T09:05:21.485Z,60.06
2023-10-14T09:05:34.284Z,60.16
2023-10-14T09:15:24.653Z,60.46
2023-10-14T09:15:38.201Z,60.53
2023-10-14T09:15:46.736Z,60.53
2023-10-14T09:16:11.814Z,60.53
2023-10-14T09:16:21.913Z,59.73
2023-10-14T09:16:32.600Z,59.63
2023-10-14T09:16:43.263Z,59.53
2023-10-14T09:16:54.391Z,59.93
2023-10-14T09:18:23.748Z,60.84
2023-10-14T09:18:34.634Z,60.24
2023-10-14T09:18:45.103Z,60.13
2023-10-14T09:18:55.734Z,60.44
2023-10-14T09:19:06.608Z,59.93
2023-10-14T09:19:17.060Z,60.03
2023-10-14T09:19:27.818Z,60.03
2023-10-14T09:19:39.567Z,60.13
2023-10-14T09:19:49.387Z,60.03
2023-10-14T09:20:01.098Z,60.24
2023-10-14T09:20:10.955Z,60.33
2023-10-14T09:20:21.806Z,60.44
2023-10-14T09:20:32.579Z,60.33
2023-10-14T09:20:43.157Z,60.64
2023-10-14T09:20:53.635Z,60.53
2023-10-14T09:21:04.718Z,60.33
2023-10-14T09:21:15.289Z,60.44
2023-10-14T09:21:26.037Z,60.03
2023-10-14T09:21:36.850Z,60.33
2023-10-14T09:21:47.945Z,60.44
2023-10-14T09:21:58.392Z,60.13
2023-10-14T09:22:09.333Z,59.73
2023-10-14T09:22:19.993Z,59.73
2023-10-14T09:22:30.749Z,59.93
2023-10-14T09:22:41.573Z,60.03
2023-10-14T09:22:52.211Z,59.93
2023-10-14T09:23:03.028Z,60.03
2023-10-14T09:23:13.829Z,60.24
2023-10-14T09:23:24.385Z,60.03
2023-10-14T09:23:34.991Z,60.13
2023-10-14T09:23:45.691Z,60.03
2023-10-14T09:23:56.507Z,59.93
2023-10-14T09:24:07.308Z,59.22
2023-10-14T09:24:17.759Z,59.22
2023-10-14T09:24:28.114Z,59.33
2023-10-14T09:24:39.111Z,59.93
2023-10-14T09:24:50.365Z,59.63
2023-10-14T09:25:01.474Z,59.22
2023-10-14T09:25:11.739Z,59.53
2023-10-14T09:25:22.551Z,60.03
2023-10-14T09:25:33.472Z,60.44
2023-10-14T09:25:44.757Z,60.94
2023-10-14T09:25:55.516Z,60.64
2023-10-14T09:26:06.622Z,60.44
2023-10-14T09:26:17.257Z,60.03
2023-10-14T09:26:27.589Z,60.24
2023-10-14T09:26:38.664Z,61.55
2023-10-14T09:26:49.251Z,61.65
2023-10-14T09:26:59.710Z,61.04
2023-10-14T09:27:10.943Z,60.24
2023-10-14T09:27:21.397Z,60.44
2023-10-14T09:27:32.710Z,60.24
2023-10-14T09:27:43.317Z,59.53
2023-10-14T09:27:53.939Z,59.73
2023-10-14T09:28:04.751Z,59.33
2023-10-14T09:28:15.367Z,59.02
2023-10-14T09:28:26.231Z,59.12
2023-10-14T09:28:36.989Z,59.02
2023-10-14T09:28:48.131Z,59.73
2023-10-14T09:28:58.692Z,60.13
2023-10-14T09:29:09.419Z,59.93
2023-10-14T09:29:20.524Z,59.42
2023-10-14T09:29:31.533Z,59.42
2023-10-14T09:29:41.768Z,58.92
2023-10-14T09:29:52.601Z,58.92
2023-10-14T09:30:03.036Z,59.22
2023-10-14T09:30:13.740Z,59.22
2023-10-14T09:30:24.657Z,59.12
2023-10-14T09:30:35.382Z,59.22
2023-10-14T09:30:46.298Z,60.44
2023-10-14T09:30:56.842Z,61.65
2023-10-14T09:31:07.617Z,61.55
2023-10-14T09:31:18.423Z,61.35
2023-10-14T09:31:28.907Z,60.94
2023-10-14T09:31:40.139Z,61.04
2023-10-14T09:31:50.858Z,60.64
2023-10-14T09:32:01.672Z,60.33
2023-10-14T09:32:12.543Z,59.12
2023-10-14T09:32:23.063Z,58.62
2023-10-14T09:32:34.089Z,58.42
2023-10-14T09:32:44.653Z,58.92
2023-10-14T09:32:55.251Z,59.33
2023-10-14T09:33:06.777Z,58.92
2023-10-14T09:33:16.589Z,59.12
2023-10-14T09:33:26.917Z,59.33
2023-10-14T09:33:37.521Z,58.54
2023-10-14T09:33:48.179Z,58.22
2023-10-14T09:33:58.854Z,58.34
2023-10-14T09:34:09.645Z,58.25
2023-10-14T09:34:20.255Z,58.04
2023-10-14T09:34:31.341Z,58.14
2023-10-14T09:34:41.892Z,58.25
2023-10-14T09:34:52.560Z,58.54
2023-10-14T09:35:03.440Z,58.04
2023-10-14T09:35:14.170Z,58.04
2023-10-14T09:35:24.936Z,58.25
2023-10-14T09:35:35.766Z,58.34
2023-10-14T09:35:46.530Z,58.95
2023-10-14T09:35:57.376Z,59.15
2023-10-14T09:36:08.120Z,58.85
2023-10-14T09:36:18.815Z,59.05
2023-10-14T09:36:29.618Z,59.45
2023-10-14T09:36:40.234Z,59.86
2023-10-14T09:36:51.061Z,60.06
2023-10-14T09:37:01.823Z,60.36
2023-10-14T09:37:12.590Z,60.77
2023-10-14T09:37:23.498Z,61.17
2023-10-14T09:37:34.230Z,60.26
2023-10-14T09:37:44.974Z,60.26
2023-10-14T09:37:55.670Z,60.16
2023-10-14T09:38:06.159Z,59.25
2023-10-14T09:38:17.342Z,59.15
2023-10-14T09:38:27.788Z,59.56
2023-10-14T09:38:38.851Z,60.06
2023-10-14T09:38:49.309Z,59.45
2023-10-14T09:39:00.217Z,59.86
2023-10-14T09:39:11.150Z,60.36
2023-10-14T09:39:22.543Z,60.06
2023-10-14T09:39:33.205Z,60.16
2023-10-14T09:39:43.856Z,60.16
2023-10-14T09:39:54.463Z,59.66
2023-10-14T09:40:05.529Z,59.66
2023-10-14T09:40:16.227Z,59.35
2023-10-14T09:40:26.990Z,59.15
2023-10-14T09:40:37.755Z,58.85
2023-10-14T09:40:48.582Z,58.54
2023-10-14T09:40:59.282Z,58.95
2023-10-14T09:41:09.731Z,59.15
2023-10-14T09:41:20.879Z,59.66
2023-10-14T09:41:31.367Z,59.45
2023-10-14T09:41:41.979Z,59.96
2023-10-14T09:41:53.149Z,60.44
2023-10-14T09:42:03.885Z,60.24
2023-10-14T09:42:14.458Z,60.44
2023-10-14T09:42:25.190Z,60.33
2023-10-14T09:42:35.949Z,60.84
2023-10-14T09:42:46.680Z,60.84
2023-10-14T09:42:57.423Z,60.84
2023-10-14T09:43:08.361Z,60.94
2023-10-14T09:43:18.973Z,60.74
2023-10-14T09:43:29.478Z,60.84
2023-10-14T09:43:40.679Z,60.64
2023-10-14T09:43:51.332Z,60.33
2023-10-14T09:44:02.009Z,60.03
2023-10-14T09:44:13.009Z,60.03
2023-10-14T09:44:23.696Z,59.73
2023-10-14T09:44:34.812Z,59.42
2023-10-14T09:44:45.609Z,59.80
2023-10-14T09:44:56.260Z,60.00
2023-10-14T09:45:07.018Z,59.90
2023-10-14T09:45:17.709Z,59.40
2023-10-14T09:45:28.513Z,59.30
2023-10-14T09:45:38.993Z,59.30
2023-10-14T09:45:51.975Z,59.40
2023-10-14T09:46:00.820Z,59.90
2023-10-14T09:46:11.491Z,60.10
2023-10-14T09:46:22.604Z,60.10
2023-10-14T09:46:33.244Z,59.50
2023-10-14T09:46:44.150Z,59.80
2023-10-14T09:46:54.794Z,60.21
2023-10-14T09:47:05.179Z,59.09
2023-10-14T09:47:16.178Z,58.49
2023-10-14T09:47:27.398Z,58.69
2023-10-14T09:47:38.143Z,59.00
2023-10-14T09:47:49.043Z,59.60
2023-10-14T09:47:59.818Z,60.00
2023-10-14T09:48:10.730Z,60.10
2023-10-14T09:48:21.772Z,59.60
2023-10-14T09:48:32.267Z,59.20
2023-10-14T09:48:43.125Z,58.80
2023-10-14T09:48:53.767Z,58.87
2023-10-14T09:49:04.878Z,59.27
2023-10-14T09:49:15.618Z,59.27
2023-10-14T09:49:26.388Z,59.07
2023-10-14T09:49:36.879Z,58.76
2023-10-14T09:49:47.856Z,58.06
2023-10-14T09:49:58.966Z,58.19
2023-10-14T09:50:09.448Z,58.47
2023-10-14T09:50:20.662Z,58.47
2023-10-14T09:50:31.564Z,58.76
2023-10-14T09:50:42.055Z,59.07
2023-10-14T09:50:52.792Z,58.97
2023-10-14T09:51:03.243Z,58.97
2023-10-14T09:51:14.466Z,59.77
2023-10-14T09:51:24.962Z,59.37
2023-10-14T09:51:35.549Z,59.47
2023-10-14T09:51:46.008Z,59.37
2023-10-14T09:51:57.150Z,59.47
2023-10-14T09:52:07.933Z,59.57
2023-10-14T09:52:18.779Z,59.77
2023-10-14T09:52:29.329Z,60.28
2023-10-14T09:52:39.674Z,59.77
2023-10-14T09:52:50.408Z,59.17
2023-10-14T09:53:01.164Z,59.34
2023-10-14T09:53:12.007Z,59.44
2023-10-14T09:53:22.728Z,59.44
2023-10-14T09:53:33.501Z,59.44
2023-10-14T09:53:44.473Z,58.94
2023-10-14T09:53:55.181Z,58.74
2023-10-14T09:54:05.990Z,59.14
2023-10-14T09:54:16.750Z,58.74
2023-10-14T09:54:27.605Z,58.44
2023-10-14T09:54:38.082Z,58.54
2023-10-14T09:54:49.365Z,57.43
2023-10-14T09:54:59.795Z,57.63
2023-10-14T09:55:10.864Z,57.93
2023-10-14T09:55:21.702Z,57.53
2023-10-14T09:55:32.090Z,57.43
2023-10-14T09:55:42.969Z,57.32
2023-10-14T09:55:53.675Z,57.32
2023-10-14T09:56:06.905Z,57.63
2023-10-14T09:56:18.787Z,58.03
2023-10-14T09:56:37.054Z,58.34
2023-10-14T09:56:43.338Z,58.44
2023-10-14T09:56:48.524Z,58.34
2023-10-14T09:56:57.852Z,57.73
2023-10-14T09:57:08.894Z,57.32
2023-10-14T09:57:19.513Z,57.12
2023-10-14T09:57:30.480Z,57.32
2023-10-14T09:57:41.410Z,57.43
2023-10-14T09:57:51.903Z,57.32
2023-10-14T09:58:02.634Z,57.32
2023-10-14T09:58:13.361Z,57.12
2023-10-14T09:58:24.182Z,57.23
2023-10-14T09:58:34.697Z,57.63
2023-10-14T09:58:45.690Z,58.03
2023-10-14T09:58:56.131Z,58.34
2023-10-14T09:59:07.296Z,58.14
2023-10-14T09:59:17.878Z,57.93
2023-10-14T09:59:28.960Z,57.43
2023-10-14T09:59:39.396Z,57.83
2023-10-14T09:59:50.624Z,57.53
2023-10-14T10:00:01.208Z,57.43
2023-10-14T10:00:12.096Z,57.23
2023-10-14T10:00:22.726Z,57.53
2023-10-14T10:00:37.330Z,57.60
2023-10-14T10:00:45.044Z,57.81
2023-10-14T10:00:55.320Z,58.41
2023-10-14T10:01:05.732Z,58.11
2023-10-14T10:01:16.405Z,58.21
2023-10-14T10:01:27.143Z,57.50
2023-10-14T10:01:38.048Z,57.10
2023-10-14T10:01:48.683Z,57.30
2023-10-14T10:01:59.920Z,57.90
2023-10-14T10:02:10.613Z,57.81
2023-10-14T10:02:21.421Z,57.20
2023-10-14T10:02:32.471Z,57.60
2023-10-14T10:02:43.327Z,57.81
2023-10-14T10:02:53.953Z,57.50
2023-10-14T10:03:05.062Z,56.90
2023-10-14T10:03:15.951Z,56.90
2023-10-14T10:03:26.945Z,57.00
2023-10-14T10:03:37.544Z,58.01
2023-10-14T10:03:48.215Z,58.11
2023-10-14T10:03:58.912Z,58.01
2023-10-14T10:04:09.360Z,58.71
2023-10-14T10:04:20.437Z,58.81
2023-10-14T10:04:31.126Z,58.21
2023-10-14T10:04:42.202Z,58.91
2023-10-14T10:04:52.794Z,58.98
2023-10-14T10:05:03.480Z,59.39
2023-10-14T10:05:13.883Z,59.59
2023-10-14T10:05:24.816Z,60.19
2023-10-14T10:05:35.251Z,59.89
2023-10-14T10:05:45.825Z,58.98
2023-10-14T10:05:56.756Z,58.58
2023-10-14T10:06:07.264Z,57.48
2023-10-14T10:06:17.923Z,56.47
2023-10-14T10:06:28.836Z,57.07
2023-10-14T10:06:39.793Z,57.17
2023-10-14T10:06:50.371Z,56.77
2023-10-14T10:07:00.941Z,56.97
2023-10-14T10:07:11.940Z,57.28
2023-10-14T10:07:22.424Z,57.68
2023-10-14T10:07:33.332Z,57.17
2023-10-14T10:07:44.060Z,56.77
2023-10-14T10:07:54.660Z,56.87
2023-10-14T10:08:05.293Z,57.37
2023-10-14T10:08:16.003Z,57.57
2023-10-14T10:08:26.539Z,58.28
2023-10-14T10:08:37.558Z,58.28
2023-10-14T10:08:48.011Z,57.57
2023-10-14T10:08:59.074Z,56.87
2023-10-14T10:09:09.711Z,56.27
2023-10-14T10:09:20.342Z,56.37
2023-10-14T10:09:31.108Z,55.96
2023-10-14T10:09:42.058Z,56.27
2023-10-14T10:09:52.803Z,56.47
2023-10-14T10:10:03.468Z,55.66
2023-10-14T10:10:14.046Z,54.96
2023-10-14T10:10:25.095Z,54.75
2023-10-14T10:10:36.181Z,54.66
2023-10-14T10:10:46.869Z,54.75
2023-10-14T10:10:57.584Z,55.16
2023-10-14T10:11:08.429Z,55.96
2023-10-14T10:11:19.147Z,56.16
2023-10-14T10:11:29.927Z,56.27
2023-10-14T10:11:40.601Z,56.67
2023-10-14T10:11:51.143Z,56.77
2023-10-14T10:12:01.743Z,56.77
2023-10-14T10:12:12.356Z,56.37
2023-10-14T10:12:22.905Z,56.27
2023-10-14T10:12:33.842Z,55.36
2023-10-14T10:12:44.809Z,54.86
2023-10-14T10:12:55.749Z,54.96
2023-10-14T10:13:06.827Z,55.06
2023-10-14T10:13:17.439Z,54.96
2023-10-14T10:13:28.262Z,55.06
2023-10-14T10:13:38.721Z,55.94
2023-10-14T10:13:49.797Z,57.28
2023-10-14T10:14:00.535Z,57.37
2023-10-14T10:14:11.014Z,57.55
2023-10-14T10:14:21.561Z,57.15
2023-10-14T10:14:32.476Z,56.54
2023-10-14T10:14:43.374Z,55.13
2023-10-14T10:14:54.373Z,55.94
2023-10-14T10:15:04.808Z,56.44
2023-10-14T10:15:15.759Z,56.04
2023-10-14T10:15:26.290Z,55.56
2023-10-14T10:15:37.107Z,55.96
2023-10-14T10:15:47.647Z,57.07
2023-10-14T10:15:58.330Z,57.45
2023-10-14T10:16:09.369Z,57.45
2023-10-14T10:16:19.979Z,57.55
2023-10-14T10:16:30.763Z,57.65
2023-10-14T10:16:41.296Z,57.35
2023-10-14T10:16:51.820Z,57.55
2023-10-14T10:17:02.734Z,56.95
2023-10-14T10:17:13.327Z,56.84
2023-10-14T10:17:24.244Z,56.95
2023-10-14T10:17:35.199Z,56.84
2023-10-14T10:17:45.777Z,57.04
2023-10-14T10:17:56.300Z,56.04
2023-10-14T10:18:06.996Z,55.03
2023-10-14T10:18:17.622Z,55.23
2023-10-14T10:18:28.289Z,55.63
2023-10-14T10:18:38.851Z,55.43
2023-10-14T10:18:49.830Z,55.43
2023-10-14T10:19:00.606Z,55.23
2023-10-14T10:19:11.192Z,56.24
2023-10-14T10:19:22.258Z,55.94
2023-10-14T10:19:32.585Z,55.54
2023-10-14T10:19:43.290Z,55.83
2023-10-14T10:19:53.976Z,56.34
2023-10-14T10:20:04.772Z,56.54
2023-10-14T10:20:15.825Z,56.04
2023-10-14T10:20:26.609Z,54.53
2023-10-14T10:20:37.550Z,54.23
2023-10-14T10:20:48.248Z,54.13
2023-10-14T10:20:59.353Z,53.63
2023-10-14T10:21:09.614Z,53.65
2023-10-14T10:21:20.589Z,53.95
2023-10-14T10:21:31.632Z,54.33
2023-10-14T10:21:42.290Z,54.15
2023-10-14T10:21:52.747Z,53.22
2023-10-14T10:22:03.713Z,52.92
2023-10-14T10:22:14.564Z,52.92
2023-10-14T10:22:25.061Z,53.65
2023-10-14T10:22:35.632Z,52.92
2023-10-14T10:22:46.163Z,52.24
2023-10-14T10:22:56.933Z,51.73
2023-10-14T10:23:07.525Z,51.23
2023-10-14T10:23:18.419Z,50.93
2023-10-14T10:23:29.355Z,51.43
2023-10-14T10:23:40.423Z,51.93
2023-10-14T10:23:51.124Z,52.94
2023-10-14T10:24:01.804Z,52.24
2023-10-14T10:24:12.710Z,51.73
2023-10-14T10:24:23.508Z,52.74
2023-10-14T10:24:34.236Z,53.45
2023-10-14T10:24:44.846Z,53.34
2023-10-14T10:24:55.831Z,53.45
2023-10-14T10:25:06.590Z,53.45
2023-10-14T10:25:17.313Z,53.34
2023-10-14T10:25:28.090Z,53.05
2023-10-14T10:25:38.985Z,52.44
2023-10-14T10:25:49.641Z,52.74
2023-10-14T10:26:01.574Z,53.34
2023-10-14T10:26:11.349Z,53.34
2023-10-14T10:26:22.911Z,53.65
2023-10-14T10:26:33.416Z,54.35
2023-10-14T10:26:44.016Z,54.35
2023-10-14T10:26:54.559Z,55.36
2023-10-14T10:27:05.426Z,55.76
2023-10-14T10:27:16.101Z,56.07
2023-10-14T10:27:26.629Z,56.16
2023-10-14T10:27:37.092Z,56.57
2023-10-14T10:27:48.057Z,56.67
2023-10-14T10:28:00.149Z,56.77
2023-10-14T10:28:09.859Z,56.27
2023-10-14T10:28:20.934Z,56.87
2023-10-14T10:28:31.972Z,56.37
2023-10-14T10:28:42.548Z,55.76
2023-10-14T10:28:53.083Z,55.76
2023-10-14T10:29:03.616Z,55.76
2023-10-14T10:29:14.239Z,55.46
2023-10-14T10:29:25.379Z,55.87
2023-10-14T10:29:36.279Z,56.37
2023-10-14T10:29:45.682Z,55.56
2023-10-14T10:29:56.281Z,53.85
2023-10-14T10:30:07.340Z,53.05
2023-10-14T10:30:17.874Z,52.64
2023-10-14T10:30:28.508Z,53.65
2023-10-14T10:35:00.588Z,56.49
2023-10-14T10:35:12.490Z,55.99
2023-10-14T10:35:21.634Z,56.49
2023-10-14T10:35:31.810Z,56.70
2023-10-14T14:10:05.894Z,50.50
2023-10-14T14:53:59.717Z,55.57
2023-10-14T15:10:13.015Z,55.32
2023-10-14T15:15:29.057Z,54.79
2023-10-14T15:15:42.110Z,55.49
2023-10-14T15:30:49.778Z,51.66
2023-10-14T15:31:12.593Z,52.47
2023-10-14T15:35:36.399Z,54.71
2023-10-14T15:35:46.513Z,54.81
2023-10-14T15:36:00.723Z,55.21
2023-10-14T15:36:26.762Z,54.21
2023-10-14T15:36:36.531Z,54.51
2023-10-14T15:36:48.320Z,55.01
2023-10-14T15:40:05.032Z,55.44
2023-10-14T15:40:14.828Z,55.24
2023-10-14T15:40:33.160Z,55.34
2023-10-14T15:40:52.270Z,55.54
2023-10-14T15:41:05.706Z,54.96
2023-10-14T15:42:36.569Z,55.27
2023-10-14T15:42:51.754Z,55.67
2023-10-14T15:43:02.759Z,55.77
2023-10-14T15:43:16.707Z,56.27
2023-10-14T15:45:03.703Z,55.87
2023-10-14T15:46:40.077Z,56.58
2023-10-14T15:47:13.414Z,56.18
2023-10-14T15:47:38.265Z,56.27
2023-10-14T15:47:57.477Z,56.00
2023-10-14T15:48:06.792Z,56.27
2023-10-14T15:48:17.373Z,56.71
2023-10-14T15:48:28.241Z,56.91
2023-10-14T15:48:42.889Z,56.68
2023-10-14T15:48:52.360Z,56.51
2023-10-14T15:49:06.701Z,56.20
2023-10-14T15:49:18.506Z,56.20
2023-10-14T15:50:50.032Z,56.61
2023-10-14T15:50:58.560Z,56.40
2023-10-14T16:21:09.955Z,59.39
2023-10-14T16:22:45.614Z,59.32
2023-10-14T16:22:49.908Z,59.01
2023-10-14T17:14:00.468Z,67.84
2023-10-14T17:14:10.325Z,67.84
2023-10-14T17:14:21.331Z,67.84
2023-10-14T17:15:59.669Z,69.81
2023-10-14T17:17:30.583Z,69.30
2023-10-14T17:17:43.847Z,69.50
2023-10-14T17:20:44.415Z,71.06
2023-10-14T17:22:48.863Z,72.01
2023-10-14T17:22:59.995Z,72.11
2023-10-14T17:23:09.950Z,72.52
2023-10-14T17:23:21.143Z,72.62
2023-10-14T17:38:01.526Z,79.11
2023-10-14T17:38:12.596Z,79.11
2023-10-14T17:38:23.916Z,78.91
2023-10-14T17:38:50.373Z,78.80
2023-10-14T19:34:19.413Z,90.78
2023-10-14T19:35:46.538Z,90.52
2023-10-14T19:35:57.757Z,90.47
2023-10-14T19:36:08.434Z,90.47
2023-10-14T19:36:18.733Z,90.58
2023-10-14T21:27:47.034Z,91.54
2023-10-14T21:27:53.264Z,91.54
2023-10-14T21:28:04.948Z,91.54
2023-10-14T21:29:39.031Z,90.52
2023-10-14T21:29:48.447Z,90.62
2023-10-14T21:30:01.309Z,90.68
2023-10-14T21:30:10.935Z,90.72
2023-10-14T21:30:24.958Z,90.72
2023-10-14T21:30:33.691Z,90.62
2023-10-14T21:30:53.829Z,90.62
2023-10-14T21:31:02.964Z,90.62
2023-10-14T21:31:13.113Z,90.47
2023-10-14T21:31:23.814Z,90.37
2023-10-14T21:31:36.383Z,90.37
2023-10-14T21:31:45.257Z,90.37
2023-10-14T21:31:56.508Z,90.27
2023-10-14T21:32:07.574Z,90.27
2023-10-14T21:32:33.013Z,89.76
2023-10-14T21:32:51.103Z,89.15
2023-10-14T21:36:36.346Z,88.64
2023-10-14T22:57:32.342Z,79.93
2023-10-14T22:57:41.813Z,80.14
2023-10-14T22:57:52.783Z,80.14
2023-10-14T22:58:09.917Z,80.04
2023-10-14T22:58:13.897Z,80.04
2023-10-14T22:58:25.685Z,79.93
2023-10-14T22:58:35.700Z,79.83
2023-10-14T22:58:46.499Z,80.04
2023-10-14T22:58:58.079Z,80.04
2023-10-14T22:59:18.583Z,79.83
2023-10-14T22:59:29.501Z,79.52
2023-10-14T22:59:40.078Z,79.32
2023-10-14T22:59:50.324Z,79.22
2023-10-14T23:00:01.320Z,79.32
2023-10-14T23:00:12.232Z,79.52
2023-10-14T23:00:23.461Z,79.22
2023-10-14T23:00:39.153Z,79.02
2023-10-14T23:23:16.730Z,82.12
2023-10-14T23:23:25.912Z,82.12
2023-10-14T23:49:12.167Z,84.91
